Time;durP1;ratioP1;P1;durP2;ratioP2;P2;SDS_P1;SDS_P2;PMS_P1;PMS_P2;Temp;Humidity;BMP_temperature;BMP_pressure;BME280_temperature;BME280_humidity;BME280_pressure;Samples;Min_cycle;Max_cycle;Signal;HPM_P1;HPM_P2
2021/11/25 10:37:36;;;;;;;23.40;13.60;;;2.50;99.90;;;;;;6254921;22;1757871;-90
2021/11/25 10:40:24;;;;;;;24.33;14.90;;;2.50;99.90;;;;;;6230042;23;20419;-89
2021/11/25 10:42:50;;;;;;;24.63;14.33;;;2.60;99.90;;;;;;6225466;23;20424;-89
2021/11/25 10:45:19;;;;;;;23.67;14.80;;;2.40;99.90;;;;;;6229967;23;20393;-90
2021/11/25 10:47:59;;;;;;;23.87;13.03;;;2.50;99.90;;;;;;6254392;23;20163;-89
2021/11/25 10:50:27;;;;;;;31.27;18.40;;;2.70;99.90;;;;;;6231956;23;20416;-90
2021/11/25 10:53:00;;;;;;;22.10;14.07;;;2.70;99.90;;;;;;6230574;23;20402;-91
2021/11/25 10:55:25;;;;;;;22.13;13.27;;;3.00;99.90;;;;;;6231263;23;20430;-91
2021/11/25 10:57:57;;;;;;;22.13;13.83;;;3.10;99.90;;;;;;6230133;23;20443;-90
2021/11/25 11:00:39;;;;;;;23.17;14.00;;;3.00;99.90;;;;;;6230860;23;20171;-91
2021/11/25 11:03:09;;;;;;;22.80;12.60;;;3.00;99.90;;;;;;6229325;23;20417;-90
2021/11/25 11:06:04;;;;;;;19.80;12.30;;;2.90;99.90;;;;;;6229994;23;20401;-91
2021/11/25 11:08:44;;;;;;;24.03;13.67;;;3.10;99.90;;;;;;6199371;23;20439;-90
2021/11/25 11:11:11;;;;;;;24.00;14.37;;;3.00;99.90;;;;;;6231329;23;20401;-91
2021/11/25 11:18:53;;;;;;;18.73;13.20;;;3.20;99.90;;;;;;6233987;22;20392;-90
2021/11/25 11:21:48;;;;;;;28.37;18.63;;;3.50;99.90;;;;;;6229014;23;20767;-89
2021/11/25 11:24:23;;;;;;;25.20;14.33;;;3.60;99.90;;;;;;6230689;22;20413;-90
2021/11/25 11:27:10;;;;;;;27.73;18.73;;;3.60;99.90;;;;;;6230466;23;20406;-90
2021/11/25 11:29:37;;;;;;;22.80;15.37;;;3.60;99.90;;;;;;6225899;23;20453;-91
2021/11/25 11:32:05;;;;;;;25.63;14.80;;;3.40;99.90;;;;;;6226625;23;20532;-90
2021/11/25 11:34:32;;;;;;;25.60;16.77;;;3.40;99.90;;;;;;6230441;23;20786;-91
2021/11/25 11:36:58;;;;;;;26.83;16.60;;;3.40;99.90;;;;;;6229728;23;20452;-91
2021/11/25 11:39:27;;;;;;;23.33;13.93;;;3.30;99.90;;;;;;6228363;23;20538;-90
2021/11/25 11:41:57;;;;;;;21.90;14.40;;;3.40;99.90;;;;;;6229403;23;20569;-91
2021/11/25 11:44:23;;;;;;;23.50;14.40;;;3.50;99.90;;;;;;6227007;23;20916;-90
2021/11/25 11:46:52;;;;;;;24.13;14.07;;;3.40;99.90;;;;;;6228675;23;20483;-91
2021/11/25 11:49:23;;;;;;;28.70;16.30;;;3.20;99.90;;;;;;6226088;23;20437;-90
2021/11/25 11:52:16;;;;;;;27.30;14.77;;;3.10;99.90;;;;;;6229873;23;20398;-91
2021/11/25 11:54:51;;;;;;;22.30;13.90;;;3.20;99.90;;;;;;6228428;23;20750;-89
2021/11/25 11:57:40;;;;;;;20.97;13.50;;;3.30;99.90;;;;;;6227173;23;20405;-89
2021/11/25 12:00:06;;;;;;;23.53;14.07;;;3.40;99.90;;;;;;6229653;23;20401;-94
2021/11/25 12:02:41;;;;;;;32.27;20.07;;;3.30;99.90;;;;;;6230701;23;20459;-90
2021/11/25 12:05:08;;;;;;;23.17;13.97;;;3.40;99.90;;;;;;6229154;23;20394;-91
2021/11/25 12:07:37;;;;;;;23.80;14.23;;;3.60;99.90;;;;;;6204357;23;20398;-90
2021/11/25 12:10:04;;;;;;;27.73;16.40;;;3.60;99.90;;;;;;6228516;23;20446;-90
2021/11/25 12:12:29;;;;;;;22.60;14.60;;;3.60;99.90;;;;;;6230133;23;21248;-90
2021/11/25 12:14:57;;;;;;;25.23;13.97;;;3.60;99.90;;;;;;6226194;23;20404;-92
2021/11/25 12:17:28;;;;;;;25.03;15.90;;;3.70;99.90;;;;;;6248193;23;20222;-89
2021/11/25 12:19:54;;;;;;;30.17;16.20;;;3.80;99.90;;;;;;6233032;23;20590;-91
2021/11/25 12:22:22;;;;;;;31.80;14.50;;;3.80;99.90;;;;;;6222736;23;20406;-90
2021/11/25 12:24:55;;;;;;;25.30;15.07;;;3.70;99.90;;;;;;6228451;23;20408;-90
2021/11/25 12:27:22;;;;;;;24.43;15.43;;;3.70;99.90;;;;;;6229605;23;20456;-91
2021/11/25 12:30:00;;;;;;;25.70;14.80;;;3.60;99.90;;;;;;6229640;23;20532;-90
2021/11/25 12:32:56;;;;;;;27.17;16.93;;;3.40;99.90;;;;;;6233135;22;20390;-92
2021/11/25 12:35:30;;;;;;;25.80;16.60;;;3.40;99.90;;;;;;6184137;23;20395;-95
2021/11/25 12:38:00;;;;;;;25.50;15.10;;;3.30;99.90;;;;;;6232546;23;20627;-92
2021/11/25 12:40:26;;;;;;;24.27;15.63;;;3.40;99.90;;;;;;6234063;23;20402;-93
2021/11/25 12:42:53;;;;;;;26.40;15.87;;;3.30;99.90;;;;;;6230165;23;20393;-92
2021/11/25 12:45:21;;;;;;;24.10;15.47;;;3.30;99.90;;;;;;6231037;23;20651;-93
2021/11/25 12:47:46;;;;;;;24.67;15.40;;;3.30;99.90;;;;;;6232984;23;20387;-92
2021/11/25 12:50:20;;;;;;;27.20;16.37;;;3.20;99.90;;;;;;6230985;23;20446;-90
2021/11/25 12:52:47;;;;;;;24.67;15.50;;;3.20;99.90;;;;;;6228589;23;20186;-90
2021/11/25 12:55:15;;;;;;;27.90;16.53;;;3.10;99.90;;;;;;6229843;23;20497;-90
2021/11/25 12:58:00;;;;;;;27.50;15.30;;;3.00;99.90;;;;;;6229655;23;20468;-90
2021/11/25 13:00:28;;;;;;;26.20;16.57;;;3.10;99.90;;;;;;6228933;23;20409;-89
2021/11/25 13:03:10;;;;;;;26.93;16.00;;;3.00;99.90;;;;;;6228817;23;20404;-88
2021/11/25 13:05:39;;;;;;;26.73;16.30;;;3.10;99.90;;;;;;6226460;23;20517;-89
2021/11/25 13:08:07;;;;;;;28.80;16.03;;;3.10;99.90;;;;;;6227984;23;20581;-90
2021/11/25 13:10:37;;;;;;;28.77;17.83;;;3.10;99.90;;;;;;6231091;23;20398;-91
2021/11/25 13:13:21;;;;;;;27.33;17.23;;;3.20;99.90;;;;;;6228581;23;20409;-90
2021/11/25 13:16:08;;;;;;;28.60;17.47;;;3.20;99.90;;;;;;6227611;23;21342;-89
2021/11/25 13:19:07;;;;;;;29.90;17.07;;;3.20;99.90;;;;;;6226475;23;20762;-90
2021/11/25 13:21:38;;;;;;;25.30;15.77;;;3.30;99.90;;;;;;6227545;23;20772;-91
2021/11/25 13:24:26;;;;;;;31.80;17.20;;;3.40;99.90;;;;;;6227823;23;20399;-90
2021/11/25 13:27:03;;;;;;;28.77;17.27;;;3.30;99.90;;;;;;6228270;23;20460;-89
2021/11/25 13:29:35;;;;;;;26.03;16.77;;;3.30;99.90;;;;;;6226411;23;20520;-89
2021/11/25 13:32:03;;;;;;;27.60;16.70;;;3.20;99.90;;;;;;6225936;23;20773;-88
2021/11/25 13:34:33;;;;;;;30.53;17.27;;;3.30;99.90;;;;;;6227202;23;20459;-89
2021/11/25 13:37:00;;;;;;;31.80;21.20;;;3.20;99.90;;;;;;6226247;23;20906;-90
2021/11/25 13:39:27;;;;;;;33.63;18.33;;;3.30;99.90;;;;;;6227241;23;20752;-89
2021/11/25 13:41:57;;;;;;;28.47;17.60;;;3.30;99.90;;;;;;6226523;23;20864;-88
2021/11/25 13:44:26;;;;;;;22.93;16.17;;;3.40;99.90;;;;;;6227302;23;20402;-89
2021/11/25 13:46:54;;;;;;;30.47;17.10;;;3.50;99.90;;;;;;6239060;23;20409;-90
2021/11/25 13:49:23;;;;;;;27.20;17.30;;;3.40;99.90;;;;;;6228923;23;20445;-89
2021/11/25 13:51:49;;;;;;;26.77;17.07;;;3.40;99.90;;;;;;6226285;23;20794;-90
2021/11/25 13:54:18;;;;;;;30.70;19.27;;;3.50;99.90;;;;;;6227793;23;20416;-89
2021/11/25 13:56:46;;;;;;;25.57;17.00;;;3.50;99.90;;;;;;6226723;23;20390;-88
2021/11/25 13:59:16;;;;;;;27.10;17.50;;;3.50;99.90;;;;;;6224417;22;20478;-89
2021/11/25 14:01:44;;;;;;;26.40;16.73;;;3.60;99.90;;;;;;6226851;23;20764;-90
2021/11/25 14:04:11;;;;;;;27.27;16.43;;;3.50;99.90;;;;;;6226135;23;20394;-89
2021/11/25 14:06:37;;;;;;;31.93;18.13;;;3.50;99.90;;;;;;6226285;23;20801;-91
2021/11/25 14:09:15;;;;;;;26.63;16.50;;;3.40;99.90;;;;;;6226615;23;20528;-89
2021/11/25 14:11:51;;;;;;;26.00;16.80;;;3.40;99.90;;;;;;6226275;23;20481;-89
2021/11/25 14:14:17;;;;;;;25.73;16.63;;;3.30;99.90;;;;;;6227976;23;20385;-89
2021/11/25 14:16:49;;;;;;;27.90;16.80;;;3.30;99.90;;;;;;6229872;23;20514;-91
2021/11/25 14:19:19;;;;;;;30.10;18.43;;;3.30;99.90;;;;;;6228379;23;20402;-90
2021/11/25 14:21:51;;;;;;;29.40;17.10;;;3.30;99.90;;;;;;6228153;23;20721;-89
2021/11/25 14:24:25;;;;;;;29.50;16.80;;;3.30;99.90;;;;;;6231404;23;20397;-90
2021/11/25 14:32:34;;;;;;;30.53;17.30;;;3.30;99.90;;;;;;6231911;23;20445;-89
2021/11/25 14:35:01;;;;;;;26.10;16.50;;;3.20;99.90;;;;;;6231234;23;20404;-90
2021/11/25 14:37:29;;;;;;;31.03;16.30;;;3.20;99.90;;;;;;6230529;23;20403;-90
2021/11/25 14:39:55;;;;;;;25.67;15.17;;;3.20;99.90;;;;;;6230664;23;20397;-88
2021/11/25 14:42:26;;;;;;;25.27;15.50;;;3.30;99.90;;;;;;6230495;23;20390;-89
2021/11/25 14:45:12;;;;;;;28.67;17.23;;;3.30;99.90;;;;;;6229351;23;20686;-89
2021/11/25 14:47:47;;;;;;;34.33;16.37;;;3.10;99.90;;;;;;6230061;23;20393;-89
2021/11/25 14:50:32;;;;;;;27.57;16.40;;;3.00;99.90;;;;;;6229730;23;20452;-89
2021/11/25 14:53:08;;;;;;;29.27;16.90;;;2.90;99.90;;;;;;6228872;23;20729;-89
2021/11/25 14:55:37;;;;;;;29.17;16.83;;;2.90;99.90;;;;;;6225596;23;20406;-90
2021/11/25 14:58:04;;;;;;;24.17;14.77;;;2.90;99.90;;;;;;6228855;23;20770;-89
2021/11/25 15:00:41;;;;;;;29.40;16.37;;;2.80;99.90;;;;;;6229141;23;20393;-90
2021/11/25 15:03:09;;;;;;;28.10;16.80;;;2.80;99.90;;;;;;6227354;23;20472;-89
2021/11/25 15:05:42;;;;;;;26.00;16.27;;;2.90;99.90;;;;;;6229148;23;20402;-89
2021/11/25 15:08:11;;;;;;;29.33;16.30;;;2.90;99.90;;;;;;6227225;23;20398;-90
2021/11/25 15:10:40;;;;;;;24.93;15.10;;;2.90;99.90;;;;;;6226884;23;20398;-88
2021/11/25 15:13:06;;;;;;;29.00;16.50;;;2.90;99.90;;;;;;6228390;23;20393;-89
2021/11/25 15:15:33;;;;;;;25.33;15.23;;;2.90;99.90;;;;;;6232823;23;20489;-92
2021/11/25 15:18:00;;;;;;;26.30;16.67;;;2.80;99.90;;;;;;6245544;23;20373;-91
2021/11/25 15:20:30;;;;;;;24.00;14.60;;;2.80;99.90;;;;;;6235216;23;20748;-95
2021/11/25 15:22:57;;;;;;;24.70;14.90;;;2.90;99.90;;;;;;6227822;23;20409;-90
2021/11/25 15:25:22;;;;;;;26.30;15.30;;;2.90;99.90;;;;;;6229084;23;20483;-89
2021/11/25 15:27:49;;;;;;;26.63;15.70;;;2.90;99.90;;;;;;6228647;23;20402;-90
2021/11/25 15:30:17;;;;;;;27.80;16.60;;;2.90;99.90;;;;;;6228349;23;20306;-91
2021/11/25 15:32:44;;;;;;;29.70;17.20;;;2.80;99.90;;;;;;6229370;23;20702;-90
2021/11/25 15:35:13;;;;;;;26.73;17.13;;;2.90;99.90;;;;;;6229904;23;20428;-90
2021/11/25 15:38:00;;;;;;;26.50;16.97;;;2.90;99.90;;;;;;6232536;23;20435;-96
2021/11/25 15:40:26;;;;;;;28.50;17.73;;;3.00;99.90;;;;;;6257508;23;20399;-96
2021/11/25 15:42:52;;;;;;;35.47;17.30;;;3.00;99.90;;;;;;6258860;23;20425;-95
2021/11/25 15:45:18;;;;;;;31.87;17.57;;;3.00;99.90;;;;;;6255174;23;20178;-96
2021/11/25 15:47:44;;;;;;;28.73;16.80;;;2.90;99.90;;;;;;6259775;23;20350;-96
2021/11/25 15:50:15;;;;;;;26.37;17.13;;;2.90;99.90;;;;;;6253611;22;20213;-96
2021/11/25 15:52:41;;;;;;;31.30;19.10;;;2.80;99.90;;;;;;6248418;23;20394;-95
2021/11/25 16:13:34;;;;;;;29.10;16.43;;;2.80;99.90;;;;;;6222150;22;20441;-81
2021/11/25 16:16:02;;;;;;;25.87;17.20;;;2.80;99.90;;;;;;6231969;23;20505;-91
2021/11/25 16:18:30;;;;;;;26.50;18.10;;;2.80;99.90;;;;;;6206118;23;20406;-90
2021/11/25 16:20:56;;;;;;;32.83;21.00;;;2.80;99.90;;;;;;6233750;23;20387;-91
2021/11/25 16:23:22;;;;;;;29.83;19.20;;;2.70;99.90;;;;;;6205468;23;20402;-91
2021/11/25 16:25:51;;;;;;;30.20;19.80;;;2.70;99.90;;;;;;6201622;23;20169;-91
2021/11/25 16:30:57;;;;;;;27.20;17.20;;;2.70;99.90;;;;;;6234422;23;20406;-91
2021/11/25 16:33:24;;;;;;;25.50;15.80;;;2.70;99.90;;;;;;6205197;23;20398;-91
2021/11/25 16:35:50;;;;;;;28.97;15.93;;;2.70;99.90;;;;;;6204619;23;20719;-91
2021/11/25 16:38:18;;;;;;;29.17;18.40;;;2.70;99.90;;;;;;6204908;23;20900;-90
2021/11/25 16:40:49;;;;;;;24.43;16.60;;;2.70;99.90;;;;;;6232460;23;20911;-91
2021/11/25 16:43:15;;;;;;;28.40;17.10;;;2.60;99.90;;;;;;6204832;23;20409;-92
2021/11/25 16:45:43;;;;;;;29.53;17.07;;;2.50;99.90;;;;;;6209744;23;20417;-91
2021/11/25 16:48:21;;;;;;;48.53;25.77;;;2.60;99.90;;;;;;6227502;23;20452;-91
2021/11/25 16:51:13;;;;;;;30.47;18.40;;;2.50;99.90;;;;;;6234642;23;20401;-90
2021/11/25 16:53:58;;;;;;;31.83;17.40;;;2.50;99.90;;;;;;6202049;23;20463;-91
2021/11/25 16:56:26;;;;;;;27.97;17.07;;;2.60;99.90;;;;;;6205538;23;20905;-91
2021/11/25 16:58:52;;;;;;;30.13;16.87;;;2.60;99.90;;;;;;6203580;23;20413;-91
2021/11/25 17:01:18;;;;;;;31.47;17.50;;;2.70;99.90;;;;;;6204724;23;20397;-91
2021/11/25 17:03:43;;;;;;;31.33;18.00;;;2.60;99.90;;;;;;6205231;23;20163;-91
2021/11/25 17:06:10;;;;;;;35.57;19.77;;;2.50;99.90;;;;;;6203738;23;20226;-90
2021/11/25 17:08:35;;;;;;;29.57;17.10;;;2.40;99.90;;;;;;6204071;23;20310;-91
2021/11/25 17:11:03;;;;;;;26.80;16.87;;;2.50;99.90;;;;;;6201350;23;20531;-90
2021/11/25 17:13:30;;;;;;;27.67;17.40;;;2.40;99.90;;;;;;6194332;23;20568;-90
2021/11/25 17:15:57;;;;;;;25.27;16.33;;;2.40;99.90;;;;;;6194814;23;20406;-90
2021/11/25 17:18:23;;;;;;;29.90;17.40;;;2.40;99.90;;;;;;6196725;23;20609;-91
2021/11/25 17:20:50;;;;;;;29.80;17.03;;;2.40;99.90;;;;;;6195139;23;20410;-91
2021/11/25 17:23:16;;;;;;;26.00;16.47;;;2.40;99.90;;;;;;6195514;23;20403;-90
2021/11/25 17:25:45;;;;;;;28.70;18.20;;;2.40;99.90;;;;;;6195503;23;20646;-91
2021/11/25 17:28:12;;;;;;;28.33;17.27;;;2.40;99.90;;;;;;6195567;23;20175;-90
2021/11/25 17:30:39;;;;;;;27.17;17.67;;;2.50;99.90;;;;;;6196537;23;20405;-90
2021/11/25 17:33:05;;;;;;;29.77;19.23;;;2.40;99.90;;;;;;6195322;23;20395;-91
2021/11/25 17:35:31;;;;;;;29.50;17.70;;;2.30;99.90;;;;;;6194580;23;20434;-89
2021/11/25 17:37:59;;;;;;;33.63;19.07;;;2.30;99.90;;;;;;6194261;23;20398;-92
2021/11/25 17:40:24;;;;;;;28.23;17.20;;;2.30;99.90;;;;;;6196167;23;20406;-91
2021/11/25 17:42:54;;;;;;;30.80;18.20;;;2.30;99.90;;;;;;6197820;23;20460;-91
2021/11/25 17:45:22;;;;;;;32.63;20.10;;;2.30;99.90;;;;;;6194427;23;20198;-91
2021/11/25 17:47:51;;;;;;;26.60;16.50;;;2.20;99.90;;;;;;6194621;23;20405;-91
2021/11/25 17:50:17;;;;;;;28.70;18.20;;;2.20;99.90;;;;;;6197319;23;20442;-90
2021/11/25 17:52:44;;;;;;;29.90;18.30;;;2.20;99.90;;;;;;6196895;23;20518;-90
2021/11/25 17:55:10;;;;;;;29.07;18.40;;;2.20;99.90;;;;;;6198536;23;20669;-90
2021/11/25 17:57:35;;;;;;;29.93;18.27;;;2.30;99.90;;;;;;6197326;23;20900;-90
2021/11/25 18:00:04;;;;;;;40.07;22.80;;;2.30;99.90;;;;;;6199640;23;20712;-92
2021/11/25 18:02:31;;;;;;;31.97;18.87;;;2.30;99.90;;;;;;6197492;23;20156;-91
2021/11/25 18:05:19;;;;;;;32.50;19.90;;;2.30;99.90;;;;;;6195780;23;20393;-94
2021/11/25 18:08:06;;;;;;;29.77;18.13;;;2.30;99.90;;;;;;6198587;23;20430;-92
2021/11/25 18:10:49;;;;;;;29.23;17.80;;;2.20;99.90;;;;;;6200887;23;20386;-92
2021/11/25 18:16:14;;;;;;;29.03;19.00;;;2.20;99.90;;;;;;6241205;23;20452;-93
2021/11/25 18:21:39;;;;;;;31.13;18.83;;;2.40;99.90;;;;;;6236244;23;20430;-95
2021/11/25 18:24:17;;;;;;;27.97;19.20;;;2.50;99.90;;;;;;6209505;23;20401;-93
2021/11/25 18:26:43;;;;;;;36.47;22.43;;;2.30;99.90;;;;;;6208792;23;20419;-92
2021/11/25 18:29:09;;;;;;;35.97;22.97;;;2.20;99.90;;;;;;6209885;23;20448;-94
2021/11/25 18:31:34;;;;;;;35.20;23.30;;;2.20;99.90;;;;;;6212705;23;20170;-94
2021/11/25 18:34:00;;;;;;;34.13;22.03;;;2.10;99.90;;;;;;6200957;23;20710;-90
2021/11/25 18:36:27;;;;;;;40.60;24.57;;;2.00;99.90;;;;;;6205758;23;20460;-92
2021/11/25 18:38:54;;;;;;;35.33;21.17;;;1.90;99.90;;;;;;6200426;23;20470;-94
2021/11/25 18:41:36;;;;;;;33.73;21.40;;;1.90;99.90;;;;;;6207714;23;20954;-94
2021/11/25 18:44:02;;;;;;;37.70;21.20;;;2.00;99.90;;;;;;6209514;23;20445;-89
2021/11/25 18:46:29;;;;;;;28.50;19.70;;;2.00;99.90;;;;;;6203180;23;20388;-92
2021/11/25 18:48:59;;;;;;;38.90;24.93;;;2.00;99.90;;;;;;6204265;23;20482;-92
2021/11/25 18:51:32;;;;;;;34.63;21.27;;;2.00;99.90;;;;;;6203388;23;20397;-92
2021/11/25 18:53:59;;;;;;;46.20;28.37;;;2.00;99.90;;;;;;6203646;23;20405;-93
2021/11/25 18:56:25;;;;;;;32.43;22.17;;;1.90;99.90;;;;;;6204232;23;20440;-93
2021/11/25 18:58:51;;;;;;;31.97;20.73;;;2.00;99.90;;;;;;6203065;23;20457;-87
2021/11/25 19:01:22;;;;;;;31.10;19.00;;;1.90;99.90;;;;;;6202699;23;20406;-91
2021/11/25 19:03:48;;;;;;;35.57;21.30;;;2.00;99.90;;;;;;6194117;23;20401;-88
2021/11/25 19:06:17;;;;;;;35.30;22.23;;;2.10;99.90;;;;;;6195951;23;20903;-86
2021/11/25 19:08:43;;;;;;;32.07;21.13;;;2.10;99.90;;;;;;6195542;23;20471;-87
2021/11/25 19:11:09;;;;;;;31.80;19.97;;;2.10;99.90;;;;;;6194948;23;20465;-88
2021/11/25 19:13:35;;;;;;;32.10;20.50;;;2.20;99.90;;;;;;6194161;23;20464;-86
2021/11/25 19:16:01;;;;;;;35.00;21.93;;;2.10;99.90;;;;;;6191647;23;20391;-87
2021/11/25 19:18:27;;;;;;;34.67;21.53;;;2.10;99.90;;;;;;6192586;23;20509;-86
2021/11/25 19:20:53;;;;;;;32.27;20.10;;;2.00;99.90;;;;;;6193634;23;20406;-88
2021/11/25 19:23:19;;;;;;;31.07;19.93;;;2.10;99.90;;;;;;6191276;23;20448;-88
2021/11/25 19:25:45;;;;;;;31.37;19.60;;;2.10;99.90;;;;;;6193685;23;20167;-87
2021/11/25 19:28:12;;;;;;;34.57;20.70;;;2.10;99.90;;;;;;6194019;23;20877;-86
2021/11/25 19:30:38;;;;;;;34.60;21.57;;;2.00;99.90;;;;;;6191397;23;20956;-86
2021/11/25 19:33:07;;;;;;;34.07;20.77;;;2.00;99.90;;;;;;6193245;23;20467;-86
2021/11/25 19:35:33;;;;;;;33.67;20.70;;;2.00;99.90;;;;;;6192810;23;21285;-86
2021/11/25 19:37:59;;;;;;;35.83;22.30;;;2.00;99.90;;;;;;6196461;23;20775;-87
2021/11/25 19:40:25;;;;;;;36.70;20.97;;;1.90;99.90;;;;;;6194261;23;20174;-88
2021/11/25 19:42:51;;;;;;;35.70;21.03;;;1.80;99.90;;;;;;6197021;23;20401;-88
2021/11/25 19:45:23;;;;;;;37.33;21.40;;;1.80;99.90;;;;;;6198504;23;20405;-88
2021/11/25 19:47:50;;;;;;;39.87;22.87;;;1.80;99.90;;;;;;6229630;23;20414;-86
2021/11/25 20:53:32;;;;;;;38.50;24.13;;;1.70;99.90;;;;;;6282594;22;20500;-95
2021/11/25 21:01:04;;;;;;;42.80;24.00;;;1.50;99.90;;;;;;6237369;22;20434;-94
2021/11/25 21:03:37;;;;;;;38.83;22.77;;;1.50;99.90;;;;;;6214913;23;20400;-93
2021/11/25 21:06:34;;;;;;;41.23;23.77;;;1.50;99.90;;;;;;6244772;22;20371;-96
2021/11/25 21:09:09;;;;;;;43.00;22.73;;;1.50;99.90;;;;;;6247300;23;20444;-95
2021/11/25 21:45:16;;;;;;;40.63;23.40;;;1.80;99.90;;;;;;6285390;22;20432;-96
2021/11/25 21:47:42;;;;;;;37.97;22.03;;;1.70;99.90;;;;;;6256240;22;20404;-95
2021/11/25 21:50:18;;;;;;;36.97;20.50;;;1.80;99.90;;;;;;6257584;22;20485;-95
2021/11/25 21:52:45;;;;;;;38.30;22.33;;;1.70;99.90;;;;;;6256468;22;20778;-95
2021/11/25 21:55:13;;;;;;;38.07;22.20;;;1.70;99.90;;;;;;6256011;22;20400;-96
2021/11/25 21:57:42;;;;;;;42.07;22.60;;;1.70;99.90;;;;;;6231220;22;20396;-96
2021/11/25 22:00:29;;;;;;;41.43;23.03;;;1.70;99.90;;;;;;6237023;22;20811;-96
2021/11/25 22:03:06;;;;;;;41.87;22.47;;;1.60;99.90;;;;;;6254574;22;20380;-96
2021/11/25 22:05:32;;;;;;;42.00;22.47;;;1.60;99.90;;;;;;6224479;23;20399;-96
2021/11/25 22:07:57;;;;;;;41.17;23.57;;;1.60;99.90;;;;;;6226536;23;20389;-96
2021/11/25 22:10:24;;;;;;;44.20;22.90;;;1.60;99.90;;;;;;6225468;23;20250;-96
2021/11/25 22:12:50;;;;;;;42.13;21.90;;;1.50;99.90;;;;;;6226918;23;20165;-96
2021/11/25 22:15:16;;;;;;;39.17;21.17;;;1.50;99.90;;;;;;6229802;23;20430;-96
2021/11/25 22:17:45;;;;;;;42.10;23.17;;;1.60;99.90;;;;;;6231848;23;20182;-96
2021/11/25 22:20:17;;;;;;;43.67;22.57;;;1.50;99.90;;;;;;6238550;23;20794;-96
2021/11/25 22:25:27;;;;;;;44.13;26.00;;;1.50;99.90;;;;;;6263205;23;20413;-96
2021/11/25 22:27:55;;;;;;;40.77;24.37;;;1.50;99.90;;;;;;6237014;23;20526;-95
2021/11/25 22:30:21;;;;;;;43.13;23.60;;;1.50;99.90;;;;;;6232581;23;20425;-96
2021/11/25 22:32:47;;;;;;;39.70;20.83;;;1.50;99.90;;;;;;6234681;23;20422;-96
2021/11/25 22:35:18;;;;;;;35.13;21.07;;;1.60;99.90;;;;;;6253571;23;20221;-96
2021/11/25 22:37:44;;;;;;;42.07;24.67;;;1.60;99.90;;;;;;6224326;23;20400;-96
2021/11/25 22:40:12;;;;;;;44.47;22.80;;;1.60;99.90;;;;;;6224873;23;20400;-95
2021/11/25 22:42:38;;;;;;;38.20;20.10;;;1.60;99.90;;;;;;6227958;23;20400;-96
2021/11/25 22:45:04;;;;;;;39.73;22.30;;;1.70;99.90;;;;;;6231009;22;20429;-96
2021/11/25 22:47:30;;;;;;;43.90;22.27;;;1.60;99.90;;;;;;6239662;23;20443;-95
2021/11/25 22:49:55;;;;;;;41.53;21.63;;;1.70;99.90;;;;;;6231151;23;20470;-95
2021/11/25 22:52:21;;;;;;;43.77;23.03;;;1.60;99.90;;;;;;6223007;23;20403;-96
2021/11/25 22:54:47;;;;;;;41.73;21.97;;;1.60;99.90;;;;;;6224743;23;20162;-95
2021/11/25 22:57:13;;;;;;;39.60;22.00;;;1.60;99.90;;;;;;6223816;23;20168;-95
2021/11/25 22:59:38;;;;;;;41.73;21.90;;;1.60;99.90;;;;;;6224393;23;20185;-96
2021/11/25 23:02:04;;;;;;;38.83;21.43;;;1.60;99.90;;;;;;6222706;23;20201;-95
2021/11/25 23:04:30;;;;;;;47.77;23.40;;;1.60;99.90;;;;;;6225763;23;20175;-96
2021/11/25 23:06:56;;;;;;;39.13;20.93;;;1.70;99.90;;;;;;6231851;23;20880;-96
2021/11/25 23:09:23;;;;;;;44.93;22.90;;;1.60;99.90;;;;;;6233965;22;20248;-96
2021/11/25 23:11:49;;;;;;;42.57;22.90;;;1.70;99.90;;;;;;6241888;23;20748;-96
2021/11/25 23:14:16;;;;;;;41.37;24.97;;;1.70;99.90;;;;;;6227500;23;20386;-94
2021/11/25 23:16:42;;;;;;;39.13;22.27;;;1.80;99.90;;;;;;6248664;23;20736;-96
2021/11/25 23:19:08;;;;;;;42.37;22.87;;;1.80;99.90;;;;;;6224022;23;20390;-96
2021/11/25 23:21:36;;;;;;;40.67;22.20;;;1.70;99.90;;;;;;6234915;23;20884;-96
2021/11/25 23:24:01;;;;;;;44.20;23.00;;;1.70;99.90;;;;;;6244436;23;20147;-96
2021/11/25 23:44:38;;;;;;;44.07;21.83;;;1.60;99.90;;;;;;6241306;22;20409;-95
2021/11/25 23:47:17;;;;;;;45.87;23.77;;;1.60;99.90;;;;;;6213556;23;20400;-96
2021/11/25 23:49:51;;;;;;;51.90;25.40;;;1.60;99.90;;;;;;6212279;23;20437;-96
2021/11/25 23:52:23;;;;;;;48.33;24.63;;;1.60;99.90;;;;;;6188728;23;20395;-95
2021/11/25 23:54:52;;;;;;;44.07;22.70;;;1.60;99.90;;;;;;6212946;23;20429;-90
2021/11/25 23:57:22;;;;;;;44.43;25.47;;;1.60;99.90;;;;;;6206395;23;20707;-96
2021/11/25 23:59:50;;;;;;;56.60;28.30;;;1.60;99.90;;;;;;6189283;23;20413;-92
